Time;durP1;ratioP1;P1;durP2;ratioP2;P2;SDS_P1;SDS_P2;PMS_P1;PMS_P2;Temp;Humidity;BMP_temperature;BMP_pressure;BME280_temperature;BME280_humidity;BME280_pressure;Samples;Min_cycle;Max_cycle;Signal;HPM_P1;HPM_P2
2022/07/25 00:00:06;;;;;;;;;;;;;;;23.78;60.49;99869.91;4485736;31;29579;-86
2022/07/25 00:02:31;;;;;;;;;;;;;;;23.87;60.50;99862.97;4474603;32;19997;-86
2022/07/25 00:04:56;;;;;;;;;;;;;;;23.82;60.50;99866.03;4468425;32;33314;-86
2022/07/25 00:07:21;;;;;;;;;;;;;;;23.85;60.50;99864.91;4479169;32;20011;-86
2022/07/25 00:09:46;;;;;;;;;;;;;;;23.79;60.50;99868.09;4471241;32;24874;-87
2022/07/25 00:12:12;;;;;;;;;;;;;;;23.72;60.49;99861.63;4471748;32;19988;-88
2022/07/25 00:14:37;;;;;;;;;;;;;;;23.74;60.50;99859.69;4473556;32;26120;-88
2022/07/25 00:17:02;;;;;;;;;;;;;;;23.73;60.50;99858.00;4485997;31;23486;-88
2022/07/25 00:19:27;;;;;;;;;;;;;;;23.70;60.49;99860.91;4475392;32;20296;-88
2022/07/25 00:21:53;;;;;;;;;;;;;;;23.69;60.50;99862.75;4470988;32;19984;-88
2022/07/25 00:24:18;;;;;;;;;;;;;;;23.57;60.49;99864.59;4478915;32;20069;-88
2022/07/25 00:26:43;;;;;;;;;;;;;;;23.58;60.49;99858.31;4469192;32;20009;-89
2022/07/25 00:29:10;;;;;;;;;;;;;;;23.60;60.49;99857.34;4469060;32;20014;-89
2022/07/25 00:31:35;;;;;;;;;;;;;;;23.56;60.48;99862.06;4465712;32;20340;-88
2022/07/25 00:34:00;;;;;;;;;;;;;;;23.58;60.49;99854.81;4470954;32;19973;-89
2022/07/25 00:36:25;;;;;;;;;;;;;;;23.59;60.49;99859.16;4456447;32;20352;-89
2022/07/25 00:38:51;;;;;;;;;;;;;;;23.63;60.49;99849.94;4482816;32;20010;-89
2022/07/25 00:41:16;;;;;;;;;;;;;;;23.61;60.49;99851.06;4478785;32;20008;-89
2022/07/25 00:43:42;;;;;;;;;;;;;;;23.55;60.48;99855.87;4468986;32;20028;-89
2022/07/25 00:46:07;;;;;;;;;;;;;;;23.60;60.49;99857.34;4486030;32;19979;-89
2022/07/25 00:48:32;;;;;;;;;;;;;;;23.60;60.49;99852.03;4475456;32;20000;-88
2022/07/25 00:50:58;;;;;;;;;;;;;;;23.55;60.48;99855.87;4470240;32;19996;-89
2022/07/25 00:53:23;;;;;;;;;;;;;;;23.57;60.49;99861.09;4478802;32;19987;-88
2022/07/25 00:55:48;;;;;;;;;;;;;;;23.49;60.49;99859.06;4469135;32;20313;-87
2022/07/25 00:58:13;;;;;;;;;;;;;;;23.50;60.49;99855.44;4468370;32;20041;-88
2022/07/25 01:00:39;;;;;;;;;;;;;;;23.50;60.49;99858.09;4464760;32;20007;-88
2022/07/25 01:03:04;;;;;;;;;;;;;;;23.45;60.48;99856.78;4473705;32;20028;-89
2022/07/25 01:05:29;;;;;;;;;;;;;;;23.39;60.47;99851.97;4477671;32;19983;-89
2022/07/25 01:07:54;;;;;;;;;;;;;;;23.41;60.47;99852.69;4468891;32;19977;-89
2022/07/25 01:10:20;;;;;;;;;;;;;;;23.31;60.47;99852.62;4469017;32;20011;-89
2022/07/25 01:12:49;;;;;;;;;;;;;;;23.33;60.48;99853.34;4455542;32;20032;-89
2022/07/25 01:15:15;;;;;;;;;;;;;;;23.26;60.46;99852.16;4469109;32;20049;-89
2022/07/25 01:17:40;;;;;;;;;;;;;;;23.11;60.47;99848.97;4470438;32;20339;-90
2022/07/25 01:20:11;;;;;;;;;;;;;;;23.14;60.46;99855.81;4497740;31;19996;-90
2022/07/25 01:22:37;;;;;;;;;;;;;;;23.14;60.46;99853.16;4487215;32;19991;-88
2022/07/25 01:25:02;;;;;;;;;;;;;;;23.12;60.46;99849.81;4484908;32;20001;-87
2022/07/25 01:27:27;;;;;;;;;;;;;;;23.14;60.46;99850.50;4468779;32;19997;-88
2022/07/25 01:29:53;;;;;;;;;;;;;;;23.15;60.46;99849.53;4470393;32;20360;-87
2022/07/25 01:32:18;;;;;;;;;;;;;;;23.08;60.46;99853.69;4484027;32;19984;-87
2022/07/25 01:34:43;;;;;;;;;;;;;;;23.11;60.47;99845.47;4468812;32;19976;-87
2022/07/25 01:37:08;;;;;;;;;;;;;;;23.01;60.45;99844.53;4482248;32;20302;-88
2022/07/25 01:39:34;;;;;;;;;;;;;;;23.00;60.45;99846.34;4477975;32;21885;-88
2022/07/25 01:41:59;;;;;;;;;;;;;;;22.89;60.45;99841.91;4480082;32;20000;-87
2022/07/25 01:44:25;;;;;;;;;;;;;;;22.73;60.44;99846.75;4469276;32;20004;-88
2022/07/25 01:46:51;;;;;;;;;;;;;;;22.59;60.44;99842.56;4455698;32;20024;-88
2022/07/25 01:49:17;;;;;;;;;;;;;;;22.43;60.43;99844.72;4468822;32;20045;-88
2022/07/25 01:51:42;;;;;;;;;;;;;;;22.30;60.41;99844.03;4455167;32;20416;-88
2022/07/25 01:54:07;;;;;;;;;;;;;;;22.16;60.42;99847.75;4481091;32;21442;-87
2022/07/25 01:56:32;;;;;;;;;;;;;;;22.17;60.41;99846.78;4485871;31;27081;-91
2022/07/25 01:58:58;;;;;;;;;;;;;;;22.13;60.41;99845.34;4461731;32;19992;-92
2022/07/25 02:01:23;;;;;;;;;;;;;;;22.32;60.42;99840.28;4456455;32;20019;-91
2022/07/25 02:03:48;;;;;;;;;;;;;;;22.30;60.41;99844.88;4465131;32;19999;-92
2022/07/25 02:06:14;;;;;;;;;;;;;;;22.34;60.42;99838.38;4472182;32;20012;-92
2022/07/25 02:08:39;;;;;;;;;;;;;;;22.40;60.42;99836.19;4472161;32;19984;-93
2022/07/25 02:11:04;;;;;;;;;;;;;;;22.39;60.42;99829.19;4461431;32;19973;-93
2022/07/25 02:13:29;;;;;;;;;;;;;;;22.34;60.42;99830.41;4467537;32;20003;-93
2022/07/25 02:15:55;;;;;;;;;;;;;;;22.11;60.40;99831.38;4457797;32;19996;-94
2022/07/25 02:18:20;;;;;;;;;;;;;;;21.98;60.39;99828.78;4459265;32;20318;-95
2022/07/25 02:20:45;;;;;;;;;;;;;;;21.95;60.40;99826.37;4473403;32;20020;-93
2022/07/25 02:23:10;;;;;;;;;;;;;;;21.92;60.39;99834.59;4463383;32;19997;-94
2022/07/25 02:25:36;;;;;;;;;;;;;;;21.83;60.39;99837.12;4457839;32;20333;-93
2022/07/25 02:31:31;;;;;;;;;;;;;;;21.86;60.40;99837.72;4442902;32;20028;-92
2022/07/25 02:33:58;;;;;;;;;;;;;;;21.69;60.38;99846.09;4424486;32;20020;-93
2022/07/25 02:36:23;;;;;;;;;;;;;;;21.58;60.38;99843.44;4453151;32;19996;-94
2022/07/25 02:38:48;;;;;;;;;;;;;;;21.57;60.38;99845.25;4469320;32;20029;-93
2022/07/25 02:41:13;;;;;;;;;;;;;;;21.57;60.38;99845.25;4467356;32;20011;-93
2022/07/25 02:43:39;;;;;;;;;;;;;;;21.48;60.37;99842.44;4482039;32;19984;-93
2022/07/25 02:46:04;;;;;;;;;;;;;;;21.40;60.37;99845.69;4458374;32;19996;-93
2022/07/25 02:48:29;;;;;;;;;;;;;;;21.54;60.38;99842.84;4457426;32;19989;-94
2022/07/25 02:50:54;;;;;;;;;;;;;;;21.38;60.36;99847.59;4459494;32;19969;-93
2022/07/25 02:53:20;;;;;;;;;;;;;;;21.42;60.37;99841.94;4477597;32;21171;-94
2022/07/25 02:55:45;;;;;;;;;;;;;;;21.08;60.34;99848.06;4467551;32;20273;-94
2022/07/25 02:58:10;;;;;;;;;;;;;;;21.03;60.35;99850.16;4478347;32;20033;-93
2022/07/25 03:00:36;;;;;;;;;;;;;;;20.96;60.34;99860.38;4474582;32;20023;-94
2022/07/25 03:03:01;;;;;;;;;;;;;;;20.92;60.35;99861.56;4485762;32;20013;-93
2022/07/25 03:05:26;;;;;;;;;;;;;;;20.74;60.33;99857.59;4471426;32;20000;-94
2022/07/25 03:07:51;;;;;;;;;;;;;;;20.66;60.32;99859.97;4476189;32;19999;-93
2022/07/25 03:10:16;;;;;;;;;;;;;;;20.83;60.33;99867.53;4485234;32;20310;-92
2022/07/25 03:12:42;;;;;;;;;;;;;;;20.93;60.35;99865.88;4470683;32;22267;-91
2022/07/25 03:15:07;;;;;;;;;;;;;;;20.78;60.34;99864.34;4475128;32;19981;-92
2022/07/25 03:17:33;;;;;;;;;;;;;;;20.68;60.33;99860.69;4469448;32;19997;-93
2022/07/25 03:19:58;;;;;;;;;;;;;;;20.66;60.33;99859.97;4474508;32;19980;-94
2022/07/25 03:22:23;;;;;;;;;;;;;;;20.79;60.34;99866.88;4475638;32;19973;-94
2022/07/25 03:24:48;;;;;;;;;;;;;;;20.66;60.33;99868.72;4471800;32;20324;-94
2022/07/25 03:27:14;;;;;;;;;;;;;;;20.66;60.33;99865.25;4475486;32;20026;-94
2022/07/25 03:29:39;;;;;;;;;;;;;;;20.37;60.31;99864.66;4470146;32;20008;-94
2022/07/25 03:32:05;;;;;;;;;;;;;;;20.38;60.31;99867.19;4477827;32;19981;-93
2022/07/25 03:34:30;;;;;;;;;;;;;;;20.19;60.30;99869.41;4472063;32;19988;-94
2022/07/25 03:36:55;;;;;;;;;;;;;;;20.27;60.31;99864.44;4476556;32;19999;-93
2022/07/25 03:39:20;;;;;;;;;;;;;;;20.32;60.31;99864.94;4477355;32;21053;-94
2022/07/25 03:41:45;;;;;;;;;;;;;;;20.11;60.30;99877.88;4469041;32;20026;-94
2022/07/25 03:44:11;;;;;;;;;;;;;;;20.17;60.31;99866.88;4473390;32;19988;-94
2022/07/25 03:49:22;;;;;;;;;;;;;;;20.29;60.31;99867.81;4476057;32;19976;-92
2022/07/25 03:51:47;;;;;;;;;;;;;;;20.37;60.31;99870.78;4469215;32;19980;-94
2022/07/25 03:54:12;;;;;;;;;;;;;;;20.41;60.32;99864.34;4473778;32;20036;-93
2022/07/25 03:56:38;;;;;;;;;;;;;;;20.56;60.33;99864.19;4474596;32;19989;-93
2022/07/25 03:59:04;;;;;;;;;;;;;;;20.40;60.31;99864.44;4490088;32;19979;-93
2022/07/25 04:01:29;;;;;;;;;;;;;;;20.59;60.32;99864.84;4465755;32;19990;-92
2022/07/25 04:03:54;;;;;;;;;;;;;;;20.65;60.32;99863.56;4464885;32;20269;-91
2022/07/25 04:06:19;;;;;;;;;;;;;;;20.75;60.33;99867.22;4469238;32;20262;-94
2022/07/25 04:08:45;;;;;;;;;;;;;;;21.01;60.35;99874.09;4464292;32;19968;-86
2022/07/25 04:11:10;;;;;;;;;;;;;;;21.02;60.34;99881.09;4486172;31;19976;-86
2022/07/25 04:13:35;;;;;;;;;;;;;;;21.12;60.35;99878.63;4486515;31;19980;-86
2022/07/25 04:16:01;;;;;;;;;;;;;;;21.22;60.35;99882.28;4486495;31;19988;-85
2022/07/25 04:18:26;;;;;;;;;;;;;;;21.26;60.36;99878.47;4469999;32;32909;-87
2022/07/25 04:20:51;;;;;;;;;;;;;;;21.56;60.37;99877.16;4478876;32;20348;-87
2022/07/25 04:23:16;;;;;;;;;;;;;;;21.26;60.36;99869.69;4468498;32;30317;-85
2022/07/25 04:25:42;;;;;;;;;;;;;;;21.43;60.36;99878.06;4485554;32;19988;-84
2022/07/25 04:28:08;;;;;;;;;;;;;;;20.94;60.34;99880.81;4486208;31;20023;-84
2022/07/25 04:30:33;;;;;;;;;;;;;;;21.24;60.36;99880.38;4485457;31;29785;-85
2022/07/25 04:32:58;;;;;;;;;;;;;;;21.48;60.37;99877.72;4485430;31;29645;-84
2022/07/25 04:35:24;;;;;;;;;;;;;;;21.60;60.37;99884.75;4486424;31;20604;-85
2022/07/25 04:37:49;;;;;;;;;;;;;;;21.79;60.38;99880.72;4471087;32;33320;-85
2022/07/25 04:40:14;;;;;;;;;;;;;;;21.81;60.38;99876.97;4486058;31;20067;-85
2022/07/25 04:42:39;;;;;;;;;;;;;;;21.99;60.39;99872.06;4480522;32;20016;-85
2022/07/25 04:45:05;;;;;;;;;;;;;;;22.03;60.40;99868.22;4482946;32;19996;-85
2022/07/25 04:47:30;;;;;;;;;;;;;;;22.36;60.41;99878.87;4483256;32;19995;-85
2022/07/25 04:49:55;;;;;;;;;;;;;;;22.52;60.42;99878.50;4485405;31;34000;-85
2022/07/25 04:52:20;;;;;;;;;;;;;;;22.57;60.42;99876.31;4485902;32;20288;-85
2022/07/25 04:54:46;;;;;;;;;;;;;;;22.66;60.43;99872.94;4485460;31;24462;-85
2022/07/25 04:57:11;;;;;;;;;;;;;;;22.85;60.43;99874.13;4485227;32;28428;-85
2022/07/25 04:59:36;;;;;;;;;;;;;;;23.17;60.45;99876.81;4485193;32;26566;-85
2022/07/25 05:02:01;;;;;;;;;;;;;;;23.16;60.45;99864.50;4485863;32;19985;-85
2022/07/25 05:04:27;;;;;;;;;;;;;;;23.22;60.45;99870.19;4485163;31;24950;-85
2022/07/25 05:06:52;;;;;;;;;;;;;;;23.38;60.47;99872.37;4485367;31;20023;-85
2022/07/25 05:09:18;;;;;;;;;;;;;;;23.45;60.47;99868.28;4484473;31;32298;-83
2022/07/25 05:11:43;;;;;;;;;;;;;;;23.31;60.46;99867.72;4478289;32;20011;-85
2022/07/25 05:14:08;;;;;;;;;;;;;;;23.64;60.47;99866.72;4479212;32;25240;-85
2022/07/25 05:16:33;;;;;;;;;;;;;;;23.52;60.47;99869.44;4468129;32;37379;-85
2022/07/25 05:18:58;;;;;;;;;;;;;;;23.69;60.48;99862.75;4477580;32;29948;-85
2022/07/25 05:21:24;;;;;;;;;;;;;;;23.77;60.49;99864.75;4471241;32;20016;-85
2022/07/25 05:23:49;;;;;;;;;;;;;;;23.78;60.48;99863.75;4470380;32;19984;-85
2022/07/25 05:26:14;;;;;;;;;;;;;;;23.91;60.49;99860.91;4455845;32;19999;-85
2022/07/25 05:28:39;;;;;;;;;;;;;;;24.05;60.50;99855.22;4481738;32;31491;-85
2022/07/25 05:31:04;;;;;;;;;;;;;;;24.18;60.50;99856.72;4485290;31;27563;-89
2022/07/25 05:33:30;;;;;;;;;;;;;;;24.42;60.51;99860.91;4471211;32;20003;-89
2022/07/25 05:35:55;;;;;;;;;;;;;;;24.82;60.54;99858.19;4468447;32;29411;-89
2022/07/25 05:38:20;;;;;;;;;;;;;;;24.78;60.54;99860.28;4478477;32;28986;-88
2022/07/25 05:40:45;;;;;;;;;;;;;;;25.01;60.55;99852.94;4470706;32;20266;-89
2022/07/25 05:43:11;;;;;;;;;;;;;;;25.19;60.55;99849.59;4476891;32;28859;-89
2022/07/25 05:45:36;;;;;;;;;;;;;;;25.25;60.56;99847.19;4473572;32;20053;-89
2022/07/25 05:48:01;;;;;;;;;;;;;;;25.42;60.57;99842.16;4478273;32;30789;-89
2022/07/25 05:50:26;;;;;;;;;;;;;;;25.52;60.57;99850.97;4480603;32;20332;-89
2022/07/25 05:52:52;;;;;;;;;;;;;;;25.74;60.59;99839.19;4469509;32;20005;-88
2022/07/25 05:55:17;;;;;;;;;;;;;;;25.71;60.59;99840.31;4478961;32;19980;-89
2022/07/25 05:57:43;;;;;;;;;;;;;;;25.71;60.58;99845.62;4471496;32;20261;-89
2022/07/25 06:00:08;;;;;;;;;;;;;;;26.01;60.60;99845.41;4485897;31;20011;-89
2022/07/25 06:02:33;;;;;;;;;;;;;;;26.10;60.60;99840.22;4486041;31;20245;-88
2022/07/25 06:04:59;;;;;;;;;;;;;;;26.21;60.61;99834.66;4479059;32;20014;-88
2022/07/25 06:07:24;;;;;;;;;;;;;;;26.29;60.61;99838.31;4468919;32;19993;-89
2022/07/25 06:09:49;;;;;;;;;;;;;;;26.39;60.61;99832.94;4468812;32;20004;-89
2022/07/25 06:12:14;;;;;;;;;;;;;;;26.47;60.61;99835.69;4478453;32;20439;-89
2022/07/25 06:14:39;;;;;;;;;;;;;;;26.78;60.63;99830.91;4472848;32;21203;-89
2022/07/25 06:17:05;;;;;;;;;;;;;;;26.86;60.64;99830.12;4470809;32;24218;-88
2022/07/25 06:19:30;;;;;;;;;;;;;;;26.85;60.64;99828.47;4485190;31;22573;-88
2022/07/25 06:21:55;;;;;;;;;;;;;;;26.87;60.63;99834.47;4472562;32;25776;-88
2022/07/25 06:24:20;;;;;;;;;;;;;;;27.03;60.66;99828.50;4490869;31;19982;-88
2022/07/25 06:26:46;;;;;;;;;;;;;;;27.16;60.66;99823.59;4473546;32;26240;-88
2022/07/25 06:29:11;;;;;;;;;;;;;;;27.39;60.67;99821.28;4485011;31;21640;-89
2022/07/25 06:31:36;;;;;;;;;;;;;;;27.51;60.68;99822.75;4485151;31;20043;-89
2022/07/25 06:34:01;;;;;;;;;;;;;;;27.71;60.68;99826.94;4467858;32;20007;-88
2022/07/25 06:36:26;;;;;;;;;;;;;;;27.86;60.70;99818.31;4477602;32;19977;-89
2022/07/25 06:38:52;;;;;;;;;;;;;;;27.91;60.70;99819.50;4472529;32;20004;-88
2022/07/25 06:41:17;;;;;;;;;;;;;;;27.95;60.70;99820.91;4477901;32;19973;-89
2022/07/25 06:43:42;;;;;;;;;;;;;;;28.18;60.71;99815.81;4480062;32;19993;-88
2022/07/25 06:46:07;;;;;;;;;;;;;;;28.28;60.71;99808.53;4468447;32;19987;-88
2022/07/25 06:48:33;;;;;;;;;;;;;;;28.46;60.73;99810.28;4455231;32;19996;-88
2022/07/25 06:50:58;;;;;;;;;;;;;;;28.71;60.74;99812.03;4481496;32;19996;-88
2022/07/25 06:53:23;;;;;;;;;;;;;;;28.90;60.74;99808.25;4475517;32;32843;-88
2022/07/25 06:55:48;;;;;;;;;;;;;;;29.10;60.76;99809.59;4480908;32;26230;-88
2022/07/25 06:58:14;;;;;;;;;;;;;;;29.35;60.77;99802.41;4478142;32;20004;-88
2022/07/25 07:00:39;;;;;;;;;;;;;;;29.52;60.78;99798.72;4479783;32;19984;-88
2022/07/25 07:03:04;;;;;;;;;;;;;;;29.42;60.77;99802.56;4468543;32;20273;-88
2022/07/25 07:05:30;;;;;;;;;;;;;;;29.75;60.79;99795.31;4467254;32;33229;-88
2022/07/25 07:07:55;;;;;;;;;;;;;;;29.84;60.80;99792.47;4470363;32;20019;-88
2022/07/25 07:10:21;;;;;;;;;;;;;;;29.82;60.79;99789.13;4470437;32;19988;-88
2022/07/25 07:12:46;;;;;;;;;;;;;;;29.94;60.79;99792.25;4472748;32;19997;-88
2022/07/25 07:15:12;;;;;;;;;;;;;;;29.95;60.81;99788.56;4478331;32;20018;-88
2022/07/25 07:17:37;;;;;;;;;;;;;;;30.16;60.81;99790.72;4467793;32;20024;-88
2022/07/25 07:20:03;;;;;;;;;;;;;;;30.01;60.80;99792.41;4458508;32;20030;-88
2022/07/25 07:22:28;;;;;;;;;;;;;;;30.25;60.81;99785.13;4484812;31;20016;-87
2022/07/25 07:24:53;;;;;;;;;;;;;;;30.38;60.82;99781.88;4483352;32;20315;-87
2022/07/25 07:27:18;;;;;;;;;;;;;;;30.47;60.83;99788.88;4483868;32;20780;-88
2022/07/25 07:29:43;;;;;;;;;;;;;;;30.65;60.83;99791.34;4484028;31;25855;-88
2022/07/25 07:32:09;;;;;;;;;;;;;;;30.72;60.84;99791.44;4469631;32;23209;-87
2022/07/25 07:34:34;;;;;;;;;;;;;;;30.84;60.85;99782.81;4484557;31;19985;-87
2022/07/25 07:36:59;;;;;;;;;;;;;;;30.78;60.85;99791.59;4471318;32;30024;-87
2022/07/25 07:39:24;;;;;;;;;;;;;;;30.85;60.85;99778.28;4485795;31;20017;-88
2022/07/25 07:41:50;;;;;;;;;;;;;;;30.97;60.85;99784.88;4486673;31;20273;-87
2022/07/25 07:44:15;;;;;;;;;;;;;;;30.99;60.86;99784.69;4486054;31;25982;-87
2022/07/25 07:46:40;;;;;;;;;;;;;;;31.02;60.86;99782.53;4476840;32;27007;-87
2022/07/25 07:49:05;;;;;;;;;;;;;;;31.01;60.86;99777.31;4458328;32;20214;-87
2022/07/25 07:51:31;;;;;;;;;;;;;;;31.22;60.86;99776.66;4486039;31;25534;-88
2022/07/25 07:56:40;;;;;;;;;;;;;;;31.25;60.87;99785.22;4486918;32;20047;-87
2022/07/25 07:59:06;;;;;;;;;;;;;;;31.14;60.87;99786.44;4487034;31;20301;-87
2022/07/25 08:01:31;;;;;;;;;;;;;;;31.31;60.88;99780.97;4487011;31;19983;-87
2022/07/25 08:03:56;;;;;;;;;;;;;;;31.33;60.87;99779.75;4487013;31;20373;-87
2022/07/25 08:06:21;;;;;;;;;;;;;;;31.44;60.88;99784.69;4496081;31;19992;-88
2022/07/25 08:08:46;;;;;;;;;;;;;;;31.41;60.88;99770.78;4489692;31;33623;-87
2022/07/25 08:11:12;;;;;;;;;;;;;;;31.48;60.88;99776.28;4473969;32;24752;-87
2022/07/25 08:13:37;;;;;;;;;;;;;;;31.61;60.88;99771.06;4486598;31;20270;-87
2022/07/25 08:16:02;;;;;;;;;;;;;;;31.56;60.89;99768.94;4486195;32;24818;-87
2022/07/25 08:18:34;;;;;;;;;;;;;;;31.71;60.90;99771.66;4486629;31;19984;-87
2022/07/25 08:21:01;;;;;;;;;;;;;;;31.68;60.89;99758.56;4478886;32;19985;-87
2022/07/25 08:23:27;;;;;;;;;;;;;;;31.88;60.90;99761.56;4466116;32;20616;-88
2022/07/25 08:25:52;;;;;;;;;;;;;;;31.98;60.91;99757.59;4479302;32;22197;-87
2022/07/25 08:28:17;;;;;;;;;;;;;;;32.25;60.91;99760.59;4469462;32;20337;-88
2022/07/25 08:30:42;;;;;;;;;;;;;;;32.47;60.93;99751.56;4469400;32;19987;-88
2022/07/25 08:33:09;;;;;;;;;;;;;;;32.51;60.94;99749.34;4469240;32;20019;-87
2022/07/25 08:35:34;;;;;;;;;;;;;;;32.77;60.95;99751.47;4471515;32;19989;-87
2022/07/25 08:38:00;;;;;;;;;;;;;;;32.85;60.95;99754.88;4485085;32;20019;-87
2022/07/25 08:40:25;;;;;;;;;;;;;;;32.98;60.96;99751.50;4486171;31;20335;-85
2022/07/25 08:42:51;;;;;;;;;;;;;;;33.23;60.97;99750.06;4479739;32;20014;-84
2022/07/25 08:45:18;;;;;;;;;;;;;;;33.15;60.97;99755.59;4455710;32;24864;-85
2022/07/25 08:47:43;;;;;;;;;;;;;;;33.30;60.97;99742.00;4485238;32;20025;-85
2022/07/25 08:50:09;;;;;;;;;;;;;;;33.37;60.97;99740.25;4475591;32;27340;-85
2022/07/25 08:52:35;;;;;;;;;;;;;;;33.65;60.99;99742.91;4469243;32;19997;-85
2022/07/25 08:55:02;;;;;;;;;;;;;;;33.76;60.99;99734.25;4477260;32;19980;-85
2022/07/25 08:57:27;;;;;;;;;;;;;;;34.05;61.01;99735.88;4486221;31;20365;-85
2022/07/25 08:59:55;;;;;;;;;;;;;;;33.96;61.01;99736.25;4485253;31;30093;-85
2022/07/25 09:02:20;;;;;;;;;;;;;;;34.01;61.01;99728.38;4471619;32;19998;-85
2022/07/25 09:04:45;;;;;;;;;;;;;;;34.01;61.01;99731.06;4469420;32;20884;-85
2022/07/25 09:07:11;;;;;;;;;;;;;;;34.12;61.02;99727.81;4468963;32;20034;-85
2022/07/25 09:09:37;;;;;;;;;;;;;;;34.37;61.03;99726.25;4483353;32;23393;-86
2022/07/25 09:12:02;;;;;;;;;;;;;;;34.50;61.03;99728.16;4478039;32;19992;-85
2022/07/25 09:14:30;;;;;;;;;;;;;;;34.74;61.04;99718.63;4469878;32;20272;-86
2022/07/25 09:16:56;;;;;;;;;;;;;;;34.75;61.04;99714.88;4486303;31;19984;-85
2022/07/25 09:19:22;;;;;;;;;;;;;;;34.92;61.04;99715.34;4486150;31;19976;-85
2022/07/25 09:21:57;;;;;;;;;;;;;;;35.04;61.05;99709.13;4473930;32;19973;-85
2022/07/25 09:24:23;;;;;;;;;;;;;;;34.91;61.04;99717.22;4486200;32;19977;-86
2022/07/25 09:26:48;;;;;;;;;;;;;;;34.29;61.03;99712.06;4486313;31;20348;-86
2022/07/25 09:29:14;;;;;;;;;;;;;;;34.05;61.01;99713.41;4479809;32;20227;-86
2022/07/25 09:31:41;;;;;;;;;;;;;;;33.73;60.99;99714.91;4480527;32;20031;-86
2022/07/25 09:34:08;;;;;;;;;;;;;;;33.73;61.00;99713.03;4469636;32;20008;-86
2022/07/25 09:36:34;;;;;;;;;;;;;;;33.69;60.99;99709.09;4479156;32;20003;-85
2022/07/25 09:39:00;;;;;;;;;;;;;;;33.74;60.99;99708.47;4486279;31;19980;-86
2022/07/25 09:41:38;;;;;;;;;;;;;;;33.96;61.01;99709.25;4486119;31;19972;-86
2022/07/25 09:44:03;;;;;;;;;;;;;;;33.79;61.00;99700.59;4473672;32;19993;-86
2022/07/25 09:46:29;;;;;;;;;;;;;;;33.75;60.99;99697.47;4471809;32;20317;-86
2022/07/25 09:48:55;;;;;;;;;;;;;;;33.74;61.00;99694.97;4493652;32;19985;-86
2022/07/25 09:51:22;;;;;;;;;;;;;;;33.77;60.99;99690.00;4486206;32;20344;-86
2022/07/25 09:53:47;;;;;;;;;;;;;;;34.13;61.02;99681.69;4469255;32;20423;-86
2022/07/25 09:56:13;;;;;;;;;;;;;;;34.24;61.02;99684.81;4468753;32;19977;-86
2022/07/25 09:58:38;;;;;;;;;;;;;;;34.33;61.02;99683.59;4478357;32;19998;-86
2022/07/25 10:01:04;;;;;;;;;;;;;;;34.30;61.02;99684.81;4471906;32;29160;-86
2022/07/25 10:03:49;;;;;;;;;;;;;;;34.44;61.04;99667.63;4477388;32;19997;-86
2022/07/25 10:06:23;;;;;;;;;;;;;;;34.68;61.05;99676.19;4471320;32;19992;-86
2022/07/25 10:08:49;;;;;;;;;;;;;;;34.76;61.05;99674.09;4476137;32;20356;-86
2022/07/25 10:11:17;;;;;;;;;;;;;;;35.04;61.06;99668.53;4470677;32;19993;-86
2022/07/25 10:13:43;;;;;;;;;;;;;;;35.16;61.06;99663.31;4477299;32;20011;-85
2022/07/25 10:16:15;;;;;;;;;;;;;;;34.90;61.05;99653.34;4481189;32;19993;-86
2022/07/25 10:18:46;;;;;;;;;;;;;;;35.02;61.06;99650.87;4481651;32;19999;-86
2022/07/25 10:21:11;;;;;;;;;;;;;;;35.03;61.06;99647.12;4469923;32;19977;-86
2022/07/25 10:23:36;;;;;;;;;;;;;;;34.88;61.05;99649.19;4467916;32;20007;-87
2022/07/25 10:26:24;;;;;;;;;;;;;;;34.83;61.04;99648.97;4477381;32;19997;-86
2022/07/25 10:28:50;;;;;;;;;;;;;;;35.11;61.06;99646.06;4483322;32;20048;-86
2022/07/25 10:31:16;;;;;;;;;;;;;;;35.37;61.07;99646.84;4471201;32;19983;-86
2022/07/25 10:33:41;;;;;;;;;;;;;;;35.66;61.10;99629.25;4473070;32;19997;-86
2022/07/25 10:36:06;;;;;;;;;;;;;;;35.88;61.09;99634.41;4478876;32;20094;-86
2022/07/25 10:38:32;;;;;;;;;;;;;;;36.08;61.11;99624.31;4478905;32;20337;-87
2022/07/25 10:40:57;;;;;;;;;;;;;;;36.35;61.12;99630.41;4468628;32;27850;-86
2022/07/25 10:43:24;;;;;;;;;;;;;;;36.49;61.13;99621.13;4467851;32;20059;-87
2022/07/25 10:45:53;;;;;;;;;;;;;;;36.63;61.14;99621.84;4470555;32;19992;-87
2022/07/25 10:48:28;;;;;;;;;;;;;;;36.76;61.13;99619.03;4476421;32;20296;-87
2022/07/25 10:50:58;;;;;;;;;;;;;;;36.79;61.14;99615.91;4457122;32;20325;-88
2022/07/25 10:53:44;;;;;;;;;;;;;;;36.73;61.14;99607.81;4476371;32;20338;-87
2022/07/25 10:56:18;;;;;;;;;;;;;;;36.87;61.15;99602.03;4483701;32;20040;-88
2022/07/25 10:58:43;;;;;;;;;;;;;;;36.95;61.15;99597.41;4485131;31;20086;-88
2022/07/25 11:01:09;;;;;;;;;;;;;;;36.91;61.14;99599.72;4484803;31;20238;-88
2022/07/25 11:03:34;;;;;;;;;;;;;;;36.99;61.15;99595.91;4485044;32;20013;-88
2022/07/25 11:05:59;;;;;;;;;;;;;;;36.88;61.15;99592.84;4484879;31;19973;-87
2022/07/25 11:08:31;;;;;;;;;;;;;;;37.06;61.15;99588.50;4478006;32;21361;-88
2022/07/25 11:10:57;;;;;;;;;;;;;;;37.22;61.16;99585.22;4463979;32;19980;-88
2022/07/25 11:13:22;;;;;;;;;;;;;;;37.25;61.16;99582.06;4468949;32;20023;-88
2022/07/25 11:15:47;;;;;;;;;;;;;;;37.32;61.17;99577.38;4480742;32;19983;-87
2022/07/25 11:18:12;;;;;;;;;;;;;;;37.32;61.17;99577.38;4472975;32;19988;-88
2022/07/25 11:20:38;;;;;;;;;;;;;;;37.52;61.19;99565.47;4487531;31;20015;-88
2022/07/25 11:23:03;;;;;;;;;;;;;;;37.59;61.18;99566.19;4488358;31;20264;-88
2022/07/25 11:25:28;;;;;;;;;;;;;;;37.31;61.17;99564.88;4488523;32;19976;-88
2022/07/25 11:28:00;;;;;;;;;;;;;;;37.41;61.17;99561.63;4490471;31;20376;-88
2022/07/25 11:30:27;;;;;;;;;;;;;;;37.39;61.17;99551.00;4491750;32;19965;-88
2022/07/25 11:32:54;;;;;;;;;;;;;;;37.29;61.16;99553.41;4488871;32;19956;-88
2022/07/25 11:35:29;;;;;;;;;;;;;;;37.30;61.17;99554.25;4485407;32;19984;-88
2022/07/25 11:37:55;;;;;;;;;;;;;;;37.14;61.16;99547.50;4479581;32;20037;-89
2022/07/25 11:40:21;;;;;;;;;;;;;;;37.40;61.18;99540.97;4469874;32;19985;-88
2022/07/25 11:42:47;;;;;;;;;;;;;;;37.42;61.18;99539.69;4469830;32;19989;-88
2022/07/25 11:45:20;;;;;;;;;;;;;;;37.59;61.19;99539.88;4469898;32;20023;-89
2022/07/25 11:47:49;;;;;;;;;;;;;;;37.81;61.19;99532.06;4469598;32;19977;-88
2022/07/25 11:50:14;;;;;;;;;;;;;;;37.70;61.19;99530.13;4469545;32;19981;-88
2022/07/25 11:52:44;;;;;;;;;;;;;;;37.57;61.18;99531.13;4483430;32;19999;-88
2022/07/25 11:55:10;;;;;;;;;;;;;;;37.68;61.19;99524.09;4469809;32;19989;-87
2022/07/25 11:57:36;;;;;;;;;;;;;;;37.57;61.17;99519.44;4483343;32;19972;-88
2022/07/25 12:00:07;;;;;;;;;;;;;;;37.61;61.18;99518.72;4478772;32;20309;-88
2022/07/25 12:02:34;;;;;;;;;;;;;;;37.65;61.18;99519.94;4482298;32;20095;-88
2022/07/25 12:05:02;;;;;;;;;;;;;;;37.71;61.19;99510.03;4479857;32;20048;-88
2022/07/25 12:07:45;;;;;;;;;;;;;;;37.66;61.18;99509.91;4469305;32;19968;-88
2022/07/25 12:10:11;;;;;;;;;;;;;;;37.73;61.18;99499.81;4469368;32;19973;-88
2022/07/25 12:12:43;;;;;;;;;;;;;;;37.75;61.19;99505.84;4481484;32;19992;-88
2022/07/25 12:15:09;;;;;;;;;;;;;;;37.79;61.19;99496.16;4469645;32;19984;-88
2022/07/25 12:17:34;;;;;;;;;;;;;;;37.84;61.20;99498.16;4469497;32;20302;-88
2022/07/25 12:19:59;;;;;;;;;;;;;;;37.95;61.20;99497.37;4469167;32;20613;-88
2022/07/25 12:22:25;;;;;;;;;;;;;;;37.78;61.20;99491.78;4469715;32;20027;-88
2022/07/25 12:24:50;;;;;;;;;;;;;;;37.69;61.19;99485.00;4478611;32;19984;-89
2022/07/25 12:27:15;;;;;;;;;;;;;;;37.88;61.19;99494.78;4470486;32;19972;-88
2022/07/25 12:29:40;;;;;;;;;;;;;;;37.77;61.20;99476.53;4470220;32;26721;-88
2022/07/25 12:32:05;;;;;;;;;;;;;;;37.60;61.18;99468.19;4468455;32;25311;-88
2022/07/25 12:34:31;;;;;;;;;;;;;;;37.64;61.18;99460.44;4485177;32;20058;-88
2022/07/25 12:36:56;;;;;;;;;;;;;;;37.73;61.19;99462.59;4487717;32;19976;-89
2022/07/25 12:39:21;;;;;;;;;;;;;;;37.96;61.20;99463.72;4487721;31;25577;-88
2022/07/25 12:41:46;;;;;;;;;;;;;;;37.98;61.20;99451.53;4488697;31;20015;-88
2022/07/25 12:44:12;;;;;;;;;;;;;;;38.00;61.21;99440.44;4475946;32;19993;-88
2022/07/25 12:46:39;;;;;;;;;;;;;;;38.14;61.21;99450.03;4486717;32;20270;-89
2022/07/25 12:49:04;;;;;;;;;;;;;;;38.27;61.22;99438.94;4472159;32;19991;-88